createdAt,value
2019-05-29T00:00:09.892Z,1007.97
2019-05-29T00:01:14.058Z,1007.96
2019-05-29T00:02:10.086Z,1007.98
2019-05-29T00:03:08.450Z,1007.98
2019-05-29T00:04:08.442Z,1007.99
2019-05-29T00:05:08.434Z,1008.05
2019-05-29T00:06:08.416Z,1008.07
2019-05-29T00:07:08.412Z,1008.06
2019-05-29T00:08:08.404Z,1008.06
2019-05-29T00:09:08.386Z,1008.08
2019-05-29T00:10:08.961Z,1008.04
2019-05-29T00:11:08.364Z,1008.07
2019-05-29T00:12:11.358Z,1008.09
2019-05-29T00:13:10.249Z,1008.19
2019-05-29T00:14:20.742Z,1008.21
2019-05-29T00:15:10.351Z,1008.17
2019-05-29T00:16:08.372Z,1008.16
2019-05-29T00:17:08.415Z,1008.21
2019-05-29T00:18:08.369Z,1008.21
2019-05-29T00:19:08.765Z,1008.25
2019-05-29T00:20:08.371Z,1008.21
2019-05-29T00:21:08.601Z,1008.22
2019-05-29T00:22:08.285Z,1008.23
2019-05-29T00:23:08.496Z,1008.26
2019-05-29T00:24:08.351Z,1008.25
2019-05-29T00:25:08.555Z,1008.26
2019-05-29T00:26:08.341Z,1008.27
2019-05-29T00:27:12.554Z,1008.22
2019-05-29T00:28:09.176Z,1008.28
2019-05-29T00:29:08.166Z,1008.28
2019-05-29T00:30:08.802Z,1008.28
2019-05-29T00:31:08.145Z,1008.32
2019-05-29T00:32:08.884Z,1008.33
2019-05-29T00:33:08.124Z,1008.30
2019-05-29T00:34:08.946Z,1008.28
2019-05-29T00:35:08.359Z,1008.25
2019-05-29T00:36:08.255Z,1008.26
2019-05-29T00:37:08.511Z,1008.27
2019-05-29T00:38:08.462Z,1008.33
2019-05-29T00:39:08.630Z,1008.24
2019-05-29T00:40:08.918Z,1008.24
2019-05-29T00:41:08.801Z,1008.26
2019-05-29T00:42:08.942Z,1008.27
2019-05-29T00:43:09.094Z,1008.25
2019-05-29T00:44:09.067Z,1008.27
2019-05-29T00:45:09.334Z,1008.23
2019-05-29T00:46:07.984Z,1008.31
2019-05-29T00:47:07.984Z,1008.32
2019-05-29T00:48:07.968Z,1008.34
2019-05-29T00:49:07.951Z,1008.35
2019-05-29T00:50:08.121Z,1008.39
2019-05-29T00:51:08.907Z,1008.39
2019-05-29T00:52:08.122Z,1008.41
2019-05-29T00:53:08.124Z,1008.41
2019-05-29T00:54:08.218Z,1008.39
2019-05-29T00:55:08.696Z,1008.36
2019-05-29T00:56:08.520Z,1008.41
2019-05-29T00:57:08.724Z,1008.37
2019-05-29T00:58:08.784Z,1008.39
2019-05-29T00:59:08.928Z,1008.40
2019-05-29T01:00:08.953Z,1008.41
2019-05-29T01:01:07.823Z,1008.42
2019-05-29T01:02:07.811Z,1008.45
2019-05-29T01:03:07.817Z,1008.48
2019-05-29T01:04:07.789Z,1008.46
2019-05-29T01:05:07.780Z,1008.47
2019-05-29T01:06:07.767Z,1008.52
2019-05-29T01:07:07.760Z,1008.53
2019-05-29T01:08:07.756Z,1008.53
2019-05-29T01:09:07.734Z,1008.54
2019-05-29T01:10:07.724Z,1008.51
2019-05-29T01:11:07.714Z,1008.52
2019-05-29T01:12:07.709Z,1008.57
2019-05-29T01:13:07.700Z,1008.53
2019-05-29T01:14:07.680Z,1008.56
2019-05-29T01:15:07.672Z,1008.58
2019-05-29T01:16:07.661Z,1008.60
2019-05-29T01:17:07.650Z,1008.59
2019-05-29T01:18:07.648Z,1008.56
2019-05-29T01:19:07.628Z,1008.58
2019-05-29T01:20:07.616Z,1008.61
2019-05-29T01:21:07.606Z,1008.63
2019-05-29T01:22:07.595Z,1008.64
2019-05-29T01:23:07.591Z,1008.63
2019-05-29T01:24:07.576Z,1008.69
2019-05-29T01:25:07.563Z,1008.70
2019-05-29T01:26:07.553Z,1008.69
2019-05-29T01:27:07.540Z,1008.67
2019-05-29T01:28:07.542Z,1008.70
2019-05-29T01:29:07.523Z,1008.75
2019-05-29T01:30:07.509Z,1008.77
2019-05-29T01:31:07.497Z,1008.80
2019-05-29T01:32:07.488Z,1008.77
2019-05-29T01:33:07.483Z,1008.76
2019-05-29T01:34:07.463Z,1008.80
2019-05-29T01:35:07.454Z,1008.79
2019-05-29T01:36:07.446Z,1008.81
2019-05-29T01:37:07.431Z,1008.81
2019-05-29T01:38:07.430Z,1008.80
2019-05-29T01:39:07.410Z,1008.81
2019-05-29T01:40:19.242Z,1008.86
2019-05-29T01:41:08.386Z,1008.89
2019-05-29T01:42:07.379Z,1008.90
2019-05-29T01:43:07.375Z,1008.97
2019-05-29T01:44:07.356Z,1009.04
2019-05-29T01:45:08.639Z,1009.13
2019-05-29T01:46:07.336Z,1009.12
2019-05-29T01:47:07.323Z,1009.15
2019-05-29T01:48:07.326Z,1009.19
2019-05-29T01:49:07.301Z,1009.17
2019-05-29T01:50:07.291Z,1009.19
2019-05-29T01:51:07.281Z,1009.20
2019-05-29T01:52:07.271Z,1009.21
2019-05-29T01:53:07.274Z,1009.23
2019-05-29T01:54:07.249Z,1009.27
2019-05-29T01:55:07.238Z,1009.27
2019-05-29T01:56:07.227Z,1009.23
2019-05-29T01:57:07.218Z,1009.28
2019-05-29T01:58:07.214Z,1009.28
2019-05-29T01:59:07.196Z,1009.31
2019-05-29T02:00:07.184Z,1009.27
2019-05-29T02:01:07.186Z,1009.30
2019-05-29T02:02:07.162Z,1009.30
2019-05-29T02:03:07.160Z,1009.30
2019-05-29T02:04:07.144Z,1009.29
2019-05-29T02:05:07.136Z,1009.29
2019-05-29T02:06:07.119Z,1009.33
2019-05-29T02:07:07.107Z,1009.36
2019-05-29T02:08:07.119Z,1009.28
2019-05-29T02:09:07.089Z,1009.31
2019-05-29T02:10:07.077Z,1009.33
2019-05-29T02:11:07.065Z,1009.38
2019-05-29T02:12:07.055Z,1009.33
2019-05-29T02:13:07.047Z,1009.39
2019-05-29T02:14:07.041Z,1009.37
2019-05-29T02:15:22.682Z,1009.33
2019-05-29T02:16:08.010Z,1009.34
2019-05-29T02:17:07.001Z,1009.35
2019-05-29T02:18:06.996Z,1009.37
2019-05-29T02:19:06.986Z,1009.40
2019-05-29T02:20:06.966Z,1009.38
2019-05-29T02:21:06.956Z,1009.39
2019-05-29T02:22:06.947Z,1009.40
2019-05-29T02:23:06.946Z,1009.42
2019-05-29T02:24:06.933Z,1009.40
2019-05-29T02:25:06.915Z,1009.44
2019-05-29T02:26:06.901Z,1009.38
2019-05-29T02:27:06.892Z,1009.42
2019-05-29T02:28:06.884Z,1009.46
2019-05-29T02:29:06.882Z,1009.47
2019-05-29T02:30:06.860Z,1009.51
2019-05-29T02:31:06.851Z,1009.53
2019-05-29T02:32:06.838Z,1009.56
2019-05-29T02:33:06.830Z,1009.58
2019-05-29T02:34:07.603Z,1009.57
2019-05-29T02:35:06.812Z,1009.55
2019-05-29T02:36:06.797Z,1009.53
2019-05-29T02:37:06.785Z,1009.55
2019-05-29T02:38:06.785Z,1009.56
2019-05-29T02:39:06.771Z,1009.54
2019-05-29T02:40:06.754Z,1009.54
2019-05-29T02:41:06.742Z,1009.62
2019-05-29T02:42:06.732Z,1009.60
2019-05-29T02:43:06.722Z,1009.59
2019-05-29T02:44:06.719Z,1009.60
2019-05-29T02:45:06.716Z,1009.61
2019-05-29T02:46:06.687Z,1009.62
2019-05-29T02:47:06.678Z,1009.63
2019-05-29T02:48:06.668Z,1009.64
2019-05-29T02:49:06.667Z,1009.70
2019-05-29T02:50:06.643Z,1009.68
2019-05-29T02:51:06.634Z,1009.69
2019-05-29T02:52:06.623Z,1009.70
2019-05-29T02:53:06.614Z,1009.72
2019-05-29T02:54:06.608Z,1009.73
2019-05-29T02:55:06.596Z,1009.75
2019-05-29T02:56:06.579Z,1009.75
2019-05-29T02:57:06.578Z,1009.79
2019-05-29T02:58:06.566Z,1009.76
2019-05-29T02:59:06.555Z,1009.84
2019-05-29T03:00:06.544Z,1009.84
2019-05-29T03:01:06.525Z,1009.78
2019-05-29T03:02:06.518Z,1009.78
2019-05-29T03:03:06.504Z,1009.87
2019-05-29T03:04:06.501Z,1009.87
2019-05-29T03:05:06.487Z,1009.91
2019-05-29T03:06:06.482Z,1009.91
2019-05-29T03:07:06.462Z,1009.91
2019-05-29T03:08:06.447Z,1009.90
2019-05-29T03:09:06.459Z,1009.92
2019-05-29T03:10:06.428Z,1009.91
2019-05-29T03:11:06.419Z,1009.91
2019-05-29T03:12:06.407Z,1009.94
2019-05-29T03:13:06.403Z,1010.00
2019-05-29T03:14:06.394Z,1009.97
2019-05-29T03:15:06.374Z,1010.03
2019-05-29T03:16:11.526Z,1010.03
2019-05-29T03:17:07.351Z,1010.05
2019-05-29T03:18:06.343Z,1010.08
2019-05-29T03:19:06.344Z,1010.13
2019-05-29T03:20:06.336Z,1010.17
2019-05-29T03:21:06.311Z,1010.22
2019-05-29T03:22:06.299Z,1010.23
2019-05-29T03:23:06.286Z,1010.25
2019-05-29T03:24:06.302Z,1010.29
2019-05-29T03:25:06.266Z,1010.32
2019-05-29T03:26:06.260Z,1010.31
2019-05-29T03:27:06.259Z,1010.35
2019-05-29T03:28:06.234Z,1010.35
2019-05-29T03:29:06.221Z,1010.38
2019-05-29T03:30:06.257Z,1010.35
2019-05-29T03:31:06.203Z,1010.41
2019-05-29T03:32:13.370Z,1010.42
2019-05-29T03:33:07.177Z,1010.39
2019-05-29T03:34:06.184Z,1010.42
2019-05-29T03:35:06.166Z,1010.48
2019-05-29T03:36:06.162Z,1010.49
2019-05-29T03:37:06.134Z,1010.54
2019-05-29T03:38:06.133Z,1010.57
2019-05-29T03:39:06.114Z,1010.57
2019-05-29T03:40:06.118Z,1010.59
2019-05-29T03:41:06.091Z,1010.59
2019-05-29T03:42:06.079Z,1010.65
2019-05-29T03:43:06.070Z,1010.67
2019-05-29T03:44:10.118Z,1010.69
2019-05-29T03:45:06.058Z,1010.74
2019-05-29T03:46:06.084Z,1010.71
2019-05-29T03:47:06.028Z,1010.77
2019-05-29T03:48:06.039Z,1010.80
2019-05-29T03:49:06.009Z,1010.84
2019-05-29T03:50:06.001Z,1010.91
2019-05-29T03:51:05.986Z,1010.88
2019-05-29T03:52:05.980Z,1010.87
2019-05-29T03:53:05.964Z,1010.87
2019-05-29T03:54:05.953Z,1010.89
2019-05-29T03:55:05.949Z,1010.89
2019-05-29T03:56:06.719Z,1010.92
2019-05-29T03:57:05.925Z,1010.94
2019-05-29T03:58:05.906Z,1010.98
2019-05-29T03:59:05.894Z,1011.05
2019-05-29T04:00:05.899Z,1010.98
2019-05-29T04:01:05.876Z,1011.06
2019-05-29T04:02:05.861Z,1011.05
2019-05-29T04:03:05.854Z,1011.10
2019-05-29T04:04:05.839Z,1011.12
2019-05-29T04:05:05.840Z,1011.12
2019-05-29T04:06:05.819Z,1011.21
2019-05-29T04:07:05.809Z,1011.16
2019-05-29T04:08:05.795Z,1011.16
2019-05-29T04:09:05.784Z,1011.21
2019-05-29T04:10:05.789Z,1011.20
2019-05-29T04:11:05.780Z,1011.22
2019-05-29T04:12:05.756Z,1011.23
2019-05-29T04:13:05.741Z,1011.32
2019-05-29T04:14:05.729Z,1011.28
2019-05-29T04:15:05.728Z,1011.34
2019-05-29T04:16:05.710Z,1011.34
2019-05-29T04:17:05.697Z,1011.38
2019-05-29T04:18:05.684Z,1011.34
2019-05-29T04:19:05.675Z,1011.39
2019-05-29T04:20:05.675Z,1011.40
2019-05-29T04:21:05.652Z,1011.43
2019-05-29T04:22:05.641Z,1011.45
2019-05-29T04:23:05.634Z,1011.44
2019-05-29T04:24:05.619Z,1011.49
2019-05-29T04:25:05.616Z,1011.48
2019-05-29T04:26:05.616Z,1011.53
2019-05-29T04:27:05.585Z,1011.47
2019-05-29T04:28:05.574Z,1011.50
2019-05-29T04:29:05.565Z,1011.49
2019-05-29T04:30:05.588Z,1011.51
2019-05-29T04:31:05.543Z,1011.56
2019-05-29T04:32:05.534Z,1011.59
2019-05-29T04:33:05.520Z,1011.58
2019-05-29T04:34:05.512Z,1011.56
2019-05-29T04:35:05.497Z,1011.60
2019-05-29T04:36:05.501Z,1011.63
2019-05-29T04:37:07.402Z,1011.68
2019-05-29T04:38:05.471Z,1011.68
2019-05-29T04:39:05.460Z,1011.66
2019-05-29T04:40:05.443Z,1011.68
2019-05-29T04:41:05.450Z,1011.72
2019-05-29T04:42:05.422Z,1011.75
2019-05-29T04:43:05.410Z,1011.72
2019-05-29T04:44:05.399Z,1011.68
2019-05-29T04:45:05.402Z,1011.75
2019-05-29T04:46:05.383Z,1011.77
2019-05-29T04:47:11.171Z,1011.79
2019-05-29T04:48:06.354Z,1011.80
2019-05-29T04:49:05.354Z,1011.86
2019-05-29T04:50:05.334Z,1011.83
2019-05-29T04:51:05.331Z,1011.87
2019-05-29T04:52:05.313Z,1011.91
2019-05-29T04:53:05.315Z,1011.90
2019-05-29T04:54:05.293Z,1011.90
2019-05-29T04:55:05.278Z,1011.95
2019-05-29T04:56:05.277Z,1011.98
2019-05-29T04:57:05.259Z,1011.95
2019-05-29T04:58:05.251Z,1011.96
2019-05-29T04:59:05.234Z,1011.88
2019-05-29T05:00:05.225Z,1011.93
2019-05-29T05:01:05.225Z,1011.97
2019-05-29T05:02:05.205Z,1011.97
2019-05-29T05:03:05.192Z,1011.97
2019-05-29T05:04:05.180Z,1011.95
2019-05-29T05:05:05.171Z,1011.96
2019-05-29T05:06:05.167Z,1011.93
2019-05-29T05:07:05.147Z,1011.97
2019-05-29T05:08:05.136Z,1011.98
2019-05-29T05:09:05.125Z,1012.02
2019-05-29T05:10:05.115Z,1012.07
2019-05-29T05:11:05.113Z,1012.07
2019-05-29T05:12:05.092Z,1012.13
2019-05-29T05:13:05.085Z,1012.14
2019-05-29T05:14:05.071Z,1012.19
2019-05-29T05:15:05.062Z,1012.18
2019-05-29T05:16:05.059Z,1012.29
2019-05-29T05:17:05.039Z,1012.27
2019-05-29T05:18:05.027Z,1012.29
2019-05-29T05:19:05.017Z,1012.25
2019-05-29T05:20:05.015Z,1012.25
2019-05-29T05:21:05.008Z,1012.30
2019-05-29T05:22:04.987Z,1012.27
2019-05-29T05:23:04.977Z,1012.28
2019-05-29T05:24:04.966Z,1012.39
2019-05-29T05:25:04.956Z,1012.36
2019-05-29T05:26:04.954Z,1012.35
2019-05-29T05:27:04.930Z,1012.35
2019-05-29T05:28:04.919Z,1012.43
2019-05-29T05:29:04.908Z,1012.56
2019-05-29T05:30:04.897Z,1012.55
2019-05-29T05:31:04.897Z,1012.54
2019-05-29T05:32:04.876Z,1012.53
2019-05-29T05:33:04.864Z,1012.61
2019-05-29T05:34:04.855Z,1012.69
2019-05-29T05:35:04.849Z,1012.70
2019-05-29T05:36:04.843Z,1012.75
2019-05-29T05:37:04.825Z,1012.69
2019-05-29T05:38:04.813Z,1012.70
2019-05-29T05:39:04.799Z,1012.71
2019-05-29T05:40:04.790Z,1012.77
2019-05-29T05:41:04.812Z,1012.78
2019-05-29T05:42:04.771Z,1012.81
2019-05-29T05:43:04.762Z,1012.88
2019-05-29T05:44:04.750Z,1012.83
2019-05-29T05:45:04.736Z,1012.86
2019-05-29T05:46:04.726Z,1012.89
2019-05-29T05:47:04.722Z,1012.95
2019-05-29T05:48:04.706Z,1012.88
2019-05-29T05:49:04.695Z,1012.93
2019-05-29T05:50:04.692Z,1013.02
2019-05-29T05:51:04.674Z,1013.01
2019-05-29T05:52:04.670Z,1013.05
2019-05-29T05:53:04.649Z,1013.07
2019-05-29T05:54:04.643Z,1013.11
2019-05-29T05:55:04.629Z,1013.11
2019-05-29T05:56:04.617Z,1013.17
2019-05-29T05:57:04.616Z,1013.21
2019-05-29T05:58:04.605Z,1013.20
2019-05-29T05:59:04.588Z,1013.18
2019-05-29T06:00:04.574Z,1013.21
2019-05-29T06:01:04.566Z,1013.24
2019-05-29T06:02:04.565Z,1013.24
2019-05-29T06:03:04.545Z,1013.25
2019-05-29T06:04:04.534Z,1013.28
2019-05-29T06:05:04.528Z,1013.33
2019-05-29T06:06:04.513Z,1013.31
2019-05-29T06:07:04.511Z,1013.24
2019-05-29T06:08:04.495Z,1013.28
2019-05-29T06:09:04.482Z,1013.26
2019-05-29T06:10:04.471Z,1013.37
2019-05-29T06:11:04.461Z,1013.37
2019-05-29T06:12:04.460Z,1013.39
2019-05-29T06:13:04.441Z,1013.31
2019-05-29T06:14:04.430Z,1013.45
2019-05-29T06:15:04.419Z,1013.39
2019-05-29T06:16:04.407Z,1013.42
2019-05-29T06:17:04.408Z,1013.49
2019-05-29T06:18:19.973Z,1013.41
2019-05-29T06:19:05.374Z,1013.45
2019-05-29T06:20:04.365Z,1013.44
2019-05-29T06:21:04.381Z,1013.48
2019-05-29T06:22:04.353Z,1013.45
2019-05-29T06:23:04.334Z,1013.41
2019-05-29T06:24:04.323Z,1013.42
2019-05-29T06:25:04.327Z,1013.45
2019-05-29T06:26:04.302Z,1013.46
2019-05-29T06:27:04.298Z,1013.45
2019-05-29T06:28:04.299Z,1013.45
2019-05-29T06:29:04.275Z,1013.46
2019-05-29T06:30:04.264Z,1013.46
2019-05-29T06:31:04.252Z,1013.48
2019-05-29T06:32:04.270Z,1013.45
2019-05-29T06:33:04.226Z,1013.51
2019-05-29T06:34:04.215Z,1013.52
2019-05-29T06:35:04.207Z,1013.55
2019-05-29T06:36:04.198Z,1013.61
2019-05-29T06:37:04.193Z,1013.64
2019-05-29T06:38:04.171Z,1013.66
2019-05-29T06:39:04.160Z,1013.69
2019-05-29T06:40:04.150Z,1013.72
2019-05-29T06:41:04.139Z,1013.78
2019-05-29T06:42:04.138Z,1013.83
2019-05-29T06:43:04.118Z,1013.81
2019-05-29T06:44:04.111Z,1013.83
2019-05-29T06:45:04.427Z,1013.81
2019-05-29T06:46:04.084Z,1013.69
2019-05-29T06:47:04.084Z,1013.76
2019-05-29T06:48:04.072Z,1013.78
2019-05-29T06:49:04.059Z,1013.71
2019-05-29T06:50:04.042Z,1013.81
2019-05-29T06:51:04.031Z,1013.85
2019-05-29T06:52:04.029Z,1013.81
2019-05-29T06:53:04.009Z,1013.77
2019-05-29T06:54:04.002Z,1013.85
2019-05-29T06:55:03.987Z,1013.81
2019-05-29T06:56:04.093Z,1013.83
2019-05-29T06:57:03.977Z,1013.93
2019-05-29T06:58:03.957Z,1013.89
2019-05-29T06:59:03.946Z,1013.97
2019-05-29T07:00:03.942Z,1013.94
2019-05-29T07:01:03.924Z,1013.94
2019-05-29T07:02:03.946Z,1013.99
2019-05-29T07:03:03.905Z,1013.99
2019-05-29T07:04:12.044Z,1014.00
2019-05-29T07:05:04.879Z,1014.02
2019-05-29T07:06:03.907Z,1014.04
2019-05-29T07:07:03.858Z,1014.07
2019-05-29T07:08:18.098Z,1014.03
2019-05-29T07:09:04.838Z,1014.08
2019-05-29T07:10:03.826Z,1014.06
2019-05-29T07:11:03.822Z,1014.03
2019-05-29T07:12:03.962Z,1014.13
2019-05-29T07:13:03.802Z,1014.07
2019-05-29T07:14:03.785Z,1014.11
2019-05-29T07:15:03.773Z,1014.11
2019-05-29T07:16:03.761Z,1014.09
2019-05-29T07:17:03.771Z,1014.14
2019-05-29T07:18:03.746Z,1014.11
2019-05-29T07:19:26.610Z,1014.19
2019-05-29T07:20:04.721Z,1014.19
2019-05-29T07:21:03.709Z,1014.26
2019-05-29T07:22:03.699Z,1014.25
2019-05-29T07:23:03.701Z,1014.29
2019-05-29T07:24:03.677Z,1014.28
2019-05-29T07:25:03.669Z,1014.26
2019-05-29T07:26:03.653Z,1014.28
2019-05-29T07:27:03.646Z,1014.34
2019-05-29T07:28:03.640Z,1014.30
2019-05-29T07:29:08.463Z,1014.29
2019-05-29T07:30:04.609Z,1014.36
2019-05-29T07:31:04.072Z,1014.37
2019-05-29T07:32:03.591Z,1014.36
2019-05-29T07:33:03.594Z,1014.36
2019-05-29T07:34:03.566Z,1014.37
2019-05-29T07:35:04.649Z,1014.37
2019-05-29T07:36:03.546Z,1014.40
2019-05-29T07:37:03.545Z,1014.43
2019-05-29T07:38:03.539Z,1014.45
2019-05-29T07:39:03.980Z,1014.43
2019-05-29T07:40:03.502Z,1014.46
2019-05-29T07:41:03.489Z,1014.46
2019-05-29T07:42:03.480Z,1014.45
2019-05-29T07:43:03.477Z,1014.42
2019-05-29T07:44:03.456Z,1014.46
2019-05-29T07:45:03.471Z,1014.42
2019-05-29T07:46:03.440Z,1014.47
2019-05-29T07:47:03.424Z,1014.51
2019-05-29T07:48:03.426Z,1014.51
2019-05-29T07:49:03.422Z,1014.42
2019-05-29T07:50:03.400Z,1014.45
2019-05-29T07:51:06.900Z,1014.47
2019-05-29T07:52:03.387Z,1014.49
2019-05-29T07:53:03.370Z,1014.48
2019-05-29T07:54:03.346Z,1014.50
2019-05-29T07:55:03.338Z,1014.49
2019-05-29T07:56:03.333Z,1014.54
2019-05-29T07:57:03.315Z,1014.54
2019-05-29T07:58:03.317Z,1014.54
2019-05-29T07:59:03.782Z,1014.52
2019-05-29T08:00:03.286Z,1014.54
2019-05-29T08:01:12.869Z,1014.49
2019-05-29T08:02:04.267Z,1014.55
2019-05-29T08:03:03.262Z,1014.53
2019-05-29T08:04:03.241Z,1014.58
2019-05-29T08:05:03.241Z,1014.49
2019-05-29T08:06:03.317Z,1014.57
2019-05-29T08:07:03.207Z,1014.50
2019-05-29T08:08:03.208Z,1014.52
2019-05-29T08:09:03.184Z,1014.59
2019-05-29T08:10:03.185Z,1014.58
2019-05-29T08:11:03.165Z,1014.60
2019-05-29T08:12:03.155Z,1014.63
2019-05-29T08:13:03.171Z,1014.65
2019-05-29T08:14:03.132Z,1014.66
2019-05-29T08:15:03.128Z,1014.69
2019-05-29T08:16:03.480Z,1014.71
2019-05-29T08:17:03.100Z,1014.71
2019-05-29T08:18:03.114Z,1014.68
2019-05-29T08:19:03.077Z,1014.65
2019-05-29T08:20:07.392Z,1014.67
2019-05-29T08:21:03.055Z,1014.65
2019-05-29T08:22:03.050Z,1014.66
2019-05-29T08:23:03.033Z,1014.68
2019-05-29T08:24:03.030Z,1014.69
2019-05-29T08:25:03.019Z,1014.75
2019-05-29T08:26:03.007Z,1014.74
2019-05-29T08:27:02.990Z,1014.80
2019-05-29T08:28:02.978Z,1014.78
2019-05-29T08:29:02.977Z,1014.80
2019-05-29T08:30:02.985Z,1014.81
2019-05-29T08:31:02.951Z,1014.78
2019-05-29T08:32:02.937Z,1014.80
2019-05-29T08:33:02.923Z,1014.77
2019-05-29T08:34:02.926Z,1014.77
2019-05-29T08:35:02.909Z,1014.80
2019-05-29T08:36:02.892Z,1014.81
2019-05-29T08:37:07.181Z,1014.82
2019-05-29T08:38:02.873Z,1014.81
2019-05-29T08:39:02.866Z,1014.79
2019-05-29T08:40:02.849Z,1014.77
2019-05-29T08:41:05.827Z,1014.87
2019-05-29T08:42:21.927Z,1014.81
2019-05-29T08:43:03.816Z,1014.87
2019-05-29T08:44:02.813Z,1014.87
2019-05-29T08:45:02.794Z,1014.87
2019-05-29T08:46:02.784Z,1014.93
2019-05-29T08:47:10.238Z,1014.92
2019-05-29T08:48:03.761Z,1014.95
2019-05-29T08:49:02.885Z,1014.92
2019-05-29T08:50:17.407Z,1015.06
2019-05-29T08:51:03.726Z,1015.02
2019-05-29T08:52:11.564Z,1015.05
2019-05-29T08:53:03.706Z,1015.03
2019-05-29T08:54:02.705Z,1015.06
2019-05-29T08:55:02.687Z,1015.00
2019-05-29T08:56:02.770Z,1014.93
2019-05-29T08:57:02.670Z,1015.02
2019-05-29T08:58:02.654Z,1014.99
2019-05-29T08:59:02.652Z,1015.06
2019-05-29T09:00:02.630Z,1015.04
2019-05-29T09:01:02.621Z,1015.01
2019-05-29T09:02:02.617Z,1015.03
2019-05-29T09:03:02.598Z,1015.10
2019-05-29T09:04:02.597Z,1015.08
2019-05-29T09:05:03.081Z,1015.11
2019-05-29T09:06:08.919Z,1015.17
2019-05-29T09:07:03.557Z,1015.18
2019-05-29T09:08:02.552Z,1015.12
2019-05-29T09:09:02.556Z,1015.15
2019-05-29T09:10:02.532Z,1015.15
2019-05-29T09:11:02.524Z,1015.16
2019-05-29T09:12:02.511Z,1015.13
2019-05-29T09:13:05.064Z,1015.17
2019-05-29T09:14:02.488Z,1015.20
2019-05-29T09:15:02.555Z,1015.18
2019-05-29T09:16:02.456Z,1015.09
2019-05-29T09:17:02.445Z,1015.03
2019-05-29T09:18:02.434Z,1015.05
2019-05-29T09:19:02.436Z,1015.15
2019-05-29T09:20:02.419Z,1015.16
2019-05-29T09:21:03.929Z,1015.15
2019-05-29T09:22:02.394Z,1015.11
2019-05-29T09:23:02.380Z,1015.15
2019-05-29T09:24:02.383Z,1015.18
2019-05-29T09:25:02.359Z,1015.13
2019-05-29T09:26:14.127Z,1015.12
2019-05-29T09:27:03.344Z,1015.21
2019-05-29T09:28:02.390Z,1015.21
2019-05-29T09:29:02.361Z,1015.22
2019-05-29T09:30:02.311Z,1015.24
2019-05-29T09:31:02.294Z,1015.24
2019-05-29T09:32:02.284Z,1015.23
2019-05-29T09:33:02.278Z,1015.24
2019-05-29T09:34:02.262Z,1015.28
2019-05-29T09:35:02.263Z,1015.27
2019-05-29T09:36:02.246Z,1015.21
2019-05-29T09:37:02.294Z,1015.20
2019-05-29T09:38:02.218Z,1015.24
2019-05-29T09:39:02.207Z,1015.23
2019-05-29T09:40:02.208Z,1015.25
2019-05-29T09:41:02.184Z,1015.26
2019-05-29T09:42:02.179Z,1015.27
2019-05-29T09:43:02.166Z,1015.26
2019-05-29T09:44:02.156Z,1015.28
2019-05-29T09:45:02.158Z,1015.28
2019-05-29T09:46:02.450Z,1015.25
2019-05-29T09:47:02.125Z,1015.26
2019-05-29T09:48:02.437Z,1015.26
2019-05-29T09:49:02.177Z,1015.31
2019-05-29T09:50:02.097Z,1015.34
2019-05-29T09:51:20.216Z,1015.30
2019-05-29T09:52:04.064Z,1015.36
2019-05-29T09:53:03.760Z,1015.30
2019-05-29T09:54:03.477Z,1015.35
2019-05-29T09:55:02.558Z,1015.32
2019-05-29T09:56:03.016Z,1015.38
2019-05-29T09:57:02.819Z,1015.41
2019-05-29T09:58:02.729Z,1015.42
2019-05-29T09:59:03.758Z,1015.44
2019-05-29T10:00:02.662Z,1015.41
2019-05-29T10:01:19.867Z,1015.44
2019-05-29T10:02:05.958Z,1015.42
2019-05-29T10:03:03.908Z,1015.48
2019-05-29T10:04:05.824Z,1015.48
2019-05-29T10:05:02.923Z,1015.49
2019-05-29T10:06:01.914Z,1015.52
2019-05-29T10:07:02.279Z,1015.55
2019-05-29T10:08:02.401Z,1015.50
2019-05-29T10:09:01.913Z,1015.55
2019-05-29T10:10:03.691Z,1015.53
2019-05-29T10:11:08.451Z,1015.51
2019-05-29T10:12:06.377Z,1015.49
2019-05-29T10:13:02.820Z,1015.49
2019-05-29T10:14:02.781Z,1015.49
2019-05-29T10:15:02.688Z,1015.53
2019-05-29T10:16:02.850Z,1015.56
2019-05-29T10:17:07.440Z,1015.59
2019-05-29T10:18:06.860Z,1015.54
2019-05-29T10:19:03.254Z,1015.54
2019-05-29T10:20:03.187Z,1015.62
2019-05-29T10:21:03.151Z,1015.59
2019-05-29T10:22:03.615Z,1015.53
2019-05-29T10:23:03.049Z,1015.55
2019-05-29T10:24:02.314Z,1015.61
2019-05-29T10:25:02.020Z,1015.57
2019-05-29T10:26:02.829Z,1015.60
2019-05-29T10:27:03.495Z,1015.53
2019-05-29T10:28:05.157Z,1015.58
2019-05-29T10:29:08.274Z,1015.55
2019-05-29T10:30:02.667Z,1015.57
2019-05-29T10:31:03.773Z,1015.60
2019-05-29T10:32:01.636Z,1015.60
2019-05-29T10:33:01.623Z,1015.60
2019-05-29T10:34:01.608Z,1015.55
2019-05-29T10:35:01.622Z,1015.60
2019-05-29T10:36:03.983Z,1015.61
2019-05-29T10:37:01.576Z,1015.62
2019-05-29T10:38:01.565Z,1015.59
2019-05-29T10:39:01.671Z,1015.61
2019-05-29T10:40:01.553Z,1015.67
2019-05-29T10:41:06.601Z,1015.67
2019-05-29T10:42:02.524Z,1015.67
2019-05-29T10:43:01.511Z,1015.66
2019-05-29T10:44:01.499Z,1015.68
2019-05-29T10:45:01.494Z,1015.63
2019-05-29T10:46:01.490Z,1015.59
2019-05-29T10:47:01.476Z,1015.58
2019-05-29T10:48:01.457Z,1015.69
2019-05-29T10:49:04.603Z,1015.65
2019-05-29T10:50:01.566Z,1015.70
2019-05-29T10:51:01.433Z,1015.71
2019-05-29T10:52:14.501Z,1015.72
2019-05-29T10:53:02.407Z,1015.69
2019-05-29T10:54:01.436Z,1015.74
2019-05-29T10:55:01.381Z,1015.73
2019-05-29T10:56:01.377Z,1015.72
2019-05-29T10:57:01.360Z,1015.70
2019-05-29T10:58:01.349Z,1015.73
2019-05-29T10:59:01.338Z,1015.74
2019-05-29T11:00:01.327Z,1015.76
2019-05-29T11:01:01.325Z,1015.75
2019-05-29T11:02:01.303Z,1015.69
2019-05-29T11:03:01.295Z,1015.72
2019-05-29T11:04:01.282Z,1015.74
2019-05-29T11:05:01.280Z,1015.77
2019-05-29T11:06:01.267Z,1015.68
2019-05-29T11:07:01.250Z,1015.66
2019-05-29T11:08:01.242Z,1015.73
2019-05-29T11:09:01.228Z,1015.71
2019-05-29T11:10:01.217Z,1015.73
2019-05-29T11:11:01.213Z,1015.65
2019-05-29T11:12:01.194Z,1015.69
2019-05-29T11:13:01.187Z,1015.72
2019-05-29T11:14:01.179Z,1015.70
2019-05-29T11:15:01.177Z,1015.67
2019-05-29T11:16:01.163Z,1015.66
2019-05-29T11:17:01.141Z,1015.64
2019-05-29T11:18:01.133Z,1015.67
2019-05-29T11:19:01.121Z,1015.69
2019-05-29T11:20:01.152Z,1015.71
2019-05-29T11:21:01.104Z,1015.73
2019-05-29T11:22:22.552Z,1015.68
2019-05-29T11:23:02.078Z,1015.68
2019-05-29T11:24:01.064Z,1015.71
2019-05-29T11:25:21.137Z,1015.71
2019-05-29T11:26:02.052Z,1015.71
2019-05-29T11:27:01.032Z,1015.72
2019-05-29T11:28:01.021Z,1015.71
2019-05-29T11:29:01.015Z,1015.66
2019-05-29T11:30:01.004Z,1015.70
2019-05-29T11:31:06.023Z,1015.70
2019-05-29T11:32:01.982Z,1015.70
2019-05-29T11:33:01.486Z,1015.71
2019-05-29T11:34:00.960Z,1015.81
2019-05-29T11:35:02.250Z,1015.73
2019-05-29T11:36:12.415Z,1015.68
2019-05-29T11:37:02.470Z,1015.64
2019-05-29T11:38:00.916Z,1015.63
2019-05-29T11:39:05.590Z,1015.65
2019-05-29T11:40:03.235Z,1015.62
2019-05-29T11:41:23.613Z,1015.61
2019-05-29T11:42:03.025Z,1015.59
2019-05-29T11:43:00.857Z,1015.62
2019-05-29T11:44:00.845Z,1015.58
2019-05-29T11:45:00.837Z,1015.70
2019-05-29T11:46:01.962Z,1015.69
2019-05-29T11:47:02.388Z,1015.61
2019-05-29T11:48:01.628Z,1015.64
2019-05-29T11:49:00.791Z,1015.66
2019-05-29T11:50:15.400Z,1015.67
2019-05-29T11:51:02.461Z,1015.66
2019-05-29T11:52:21.697Z,1015.71
2019-05-29T11:53:02.671Z,1015.67
2019-05-29T11:54:02.340Z,1015.63
2019-05-29T11:55:04.518Z,1015.69
2019-05-29T11:56:02.154Z,1015.65
2019-05-29T11:57:00.711Z,1015.62
2019-05-29T11:58:01.946Z,1015.67
2019-05-29T11:59:00.684Z,1015.64
2019-05-29T12:00:09.564Z,1015.62
2019-05-29T12:01:01.659Z,1015.62
2019-05-29T12:02:03.192Z,1015.63
2019-05-29T12:03:01.691Z,1015.58
2019-05-29T12:04:24.115Z,1015.61
2019-05-29T12:05:03.846Z,1015.61